createdAt,value
2017-03-16T06:02:48.345Z,20
2017-03-16T06:03:35.857Z,20
2017-03-16T06:04:08.332Z,0
2017-03-16T06:05:09.720Z,0
2017-03-16T06:06:11.113Z,0
2017-03-16T06:07:12.509Z,0
2017-03-16T06:08:13.907Z,4
2017-03-16T06:09:15.302Z,4
2017-03-16T06:10:16.708Z,8
2017-03-16T06:11:21.409Z,492
2017-03-16T06:12:24.933Z,512
2017-03-16T06:13:26.606Z,532
2017-03-16T06:14:28.354Z,544
2017-03-16T06:15:47.480Z,564
2017-03-16T06:16:50.864Z,352
2017-03-16T06:17:52.690Z,500
2017-03-16T06:19:57.860Z,576
2017-03-16T06:20:24.164Z,556
2017-03-16T06:21:26.277Z,704
2017-03-16T06:22:28.168Z,724
2017-03-16T06:23:29.918Z,756
2017-03-16T06:24:32.067Z,784
2017-03-16T06:25:33.826Z,808
2017-03-16T06:26:35.611Z,844
2017-03-16T06:27:37.452Z,876
2017-03-16T06:28:39.414Z,916
2017-03-16T06:29:41.234Z,952
2017-03-16T06:30:43.048Z,972
2017-03-16T06:31:46.017Z,952
2017-03-16T06:32:47.796Z,956
2017-03-16T06:33:49.551Z,968
2017-03-16T06:34:51.311Z,1004
2017-03-16T06:35:53.040Z,1044
2017-03-16T06:36:54.696Z,1092
2017-03-16T06:37:56.403Z,1140
2017-03-16T06:38:58.125Z,1176
2017-03-16T06:39:59.757Z,1196
2017-03-16T06:41:01.364Z,1208
2017-03-16T06:42:03.024Z,1220
2017-03-16T06:43:04.719Z,1240
2017-03-16T06:44:06.421Z,1268
2017-03-16T06:45:08.219Z,1300
2017-03-16T06:46:09.821Z,1340
2017-03-16T06:47:12.341Z,1384
2017-03-16T06:48:13.534Z,1432
2017-03-16T06:49:15.279Z,1480
2017-03-16T06:50:16.853Z,1524
2017-03-16T06:51:18.524Z,1564
2017-03-16T06:52:20.135Z,1580
2017-03-16T06:53:21.908Z,1592
2017-03-16T06:54:23.733Z,1616
2017-03-16T06:55:25.450Z,1660
2017-03-16T06:56:27.098Z,1704
2017-03-16T06:57:28.840Z,1768
2017-03-16T06:58:30.486Z,1840
2017-03-16T06:59:32.213Z,1904
2017-03-16T07:00:34.036Z,1932
2017-03-16T07:01:35.821Z,1976
2017-03-16T07:02:37.421Z,2036
2017-03-16T07:04:19.881Z,2108
2017-03-16T07:05:21.391Z,2132
2017-03-16T07:06:24.523Z,2124
2017-03-16T07:07:26.174Z,2116
2017-03-16T07:08:29.217Z,2200
2017-03-16T07:09:31.053Z,2316
2017-03-16T07:10:32.741Z,2440
2017-03-16T07:11:34.584Z,2476
2017-03-16T07:12:36.179Z,2528
2017-03-16T07:13:37.883Z,2572
2017-03-16T07:14:39.524Z,2580
2017-03-16T07:15:41.130Z,2664
2017-03-16T07:16:42.811Z,2792
2017-03-16T07:17:44.524Z,2984
2017-03-16T07:18:46.133Z,3176
2017-03-16T07:19:47.728Z,3500
2017-03-16T07:20:49.359Z,3600
2017-03-16T07:21:50.896Z,3796
2017-03-16T07:22:52.519Z,3828
2017-03-16T07:23:54.359Z,3836
2017-03-16T07:24:56.275Z,3896
2017-03-16T07:25:58.140Z,4108
2017-03-16T07:26:59.929Z,3716
2017-03-16T07:28:01.743Z,3908
2017-03-16T07:29:03.546Z,3828
2017-03-16T07:30:05.355Z,3420
2017-03-16T07:31:07.116Z,3984
2017-03-16T07:32:08.872Z,3972
2017-03-16T07:33:10.695Z,3856
2017-03-16T07:34:12.389Z,3968
2017-03-16T07:35:14.461Z,3956
2017-03-16T07:36:16.187Z,3944
2017-03-16T07:37:17.828Z,3948
2017-03-16T07:38:19.687Z,3960
2017-03-16T07:39:22.716Z,3960
2017-03-16T07:40:24.524Z,3980
2017-03-16T07:41:26.303Z,4008
2017-03-16T07:42:28.245Z,4036
2017-03-16T07:43:29.890Z,4072
2017-03-16T07:44:31.743Z,4108
2017-03-16T07:45:33.446Z,4148
2017-03-16T07:46:35.118Z,4180
2017-03-16T07:47:36.889Z,4240
2017-03-16T07:48:38.538Z,4288
2017-03-16T07:49:40.230Z,4336
2017-03-16T07:50:42.018Z,4396
2017-03-16T07:51:43.704Z,4456
2017-03-16T07:52:45.332Z,4508
2017-03-16T07:53:46.912Z,4572
2017-03-16T07:54:48.717Z,4648
2017-03-16T07:55:50.304Z,4696
2017-03-16T07:56:51.934Z,4752
2017-03-16T07:57:53.510Z,4800
2017-03-16T07:58:55.089Z,4864
2017-03-16T07:59:56.677Z,4916
2017-03-16T08:00:58.220Z,4964
2017-03-16T08:02:00.515Z,5004
2017-03-16T08:03:03.154Z,5068
2017-03-16T08:04:06.100Z,5136
2017-03-16T08:05:10.224Z,5196
2017-03-16T08:06:15.141Z,5256
2017-03-16T08:07:19.275Z,5296
2017-03-16T08:08:21.221Z,5352
2017-03-16T08:09:23.066Z,5408
2017-03-16T08:10:24.804Z,5484
2017-03-16T08:11:28.907Z,5508
2017-03-16T08:12:33.121Z,5568
2017-03-16T08:13:37.838Z,5664
2017-03-16T08:14:39.855Z,5336
2017-03-16T08:15:42.893Z,5600
2017-03-16T08:16:47.999Z,5780
2017-03-16T08:17:49.677Z,5916
2017-03-16T08:18:55.001Z,5888
2017-03-16T08:19:59.567Z,5984
2017-03-16T08:21:04.682Z,6040
2017-03-16T08:22:10.097Z,6100
2017-03-16T08:23:13.948Z,6148
2017-03-16T08:24:16.939Z,6224
2017-03-16T08:25:34.642Z,6268
2017-03-16T08:26:41.093Z,6364
2017-03-16T08:27:43.970Z,6464
2017-03-16T08:28:46.990Z,6540
2017-03-16T08:29:48.781Z,6704
2017-03-16T08:30:50.749Z,6832
2017-03-16T08:31:52.835Z,7048
2017-03-16T08:32:55.587Z,7220
2017-03-16T08:33:57.422Z,7532
2017-03-16T08:34:59.055Z,7988
2017-03-16T08:36:00.877Z,8772
2017-03-16T08:37:03.339Z,9944
2017-03-16T08:38:13.074Z,11940
2017-03-16T08:39:15.392Z,28544
2017-03-16T08:40:18.590Z,48992
2017-03-16T08:41:20.458Z,55104
2017-03-16T08:42:22.367Z,57472
2017-03-16T08:43:27.450Z,59296
2017-03-16T08:44:30.312Z,59744
2017-03-16T08:45:32.146Z,59552
2017-03-16T08:46:33.780Z,61024
2017-03-16T08:47:35.450Z,61088
2017-03-16T08:48:37.200Z,61536
2017-03-16T08:49:39.301Z,61312
2017-03-16T08:50:41.372Z,61248
2017-03-16T08:51:43.019Z,61120
2017-03-16T08:52:45.000Z,60320
2017-03-16T08:53:46.743Z,60384
2017-03-16T08:54:48.666Z,59680
2017-03-16T08:55:54.695Z,58432
2017-03-16T08:56:59.995Z,57440
2017-03-16T08:58:01.776Z,57632
2017-03-16T08:59:03.814Z,57600
2017-03-16T09:00:07.769Z,57536
2017-03-16T09:01:10.235Z,56128
2017-03-16T09:02:12.398Z,56160
2017-03-16T09:03:14.245Z,56704
2017-03-16T09:04:15.928Z,55840
2017-03-16T09:05:17.709Z,55392
2017-03-16T09:07:01.561Z,54720
2017-03-16T09:08:03.271Z,53856
2017-03-16T09:09:05.906Z,54240
2017-03-16T09:10:10.420Z,53984
2017-03-16T16:12:20.332Z,1304
2017-03-16T17:36:25.582Z,0
2017-03-16T17:37:30.252Z,0
2017-03-16T17:38:31.857Z,0
2017-03-16T17:39:34.692Z,0
2017-03-16T17:40:36.248Z,0
2017-03-16T17:41:37.959Z,0
2017-03-16T17:42:39.720Z,0
2017-03-16T17:43:41.552Z,0
2017-03-16T17:44:43.359Z,0
2017-03-16T17:45:45.056Z,0
2017-03-16T17:46:46.882Z,0
2017-03-16T17:47:48.548Z,0
2017-03-16T17:48:50.338Z,0
2017-03-16T17:49:51.922Z,0
2017-03-16T17:50:53.506Z,0
2017-03-16T17:51:57.631Z,0
2017-03-16T17:53:01.616Z,4
2017-03-16T21:14:40.961Z,0
2017-03-16T21:15:42.407Z,0
2017-03-16T21:16:43.905Z,0
2017-03-16T21:17:45.344Z,0
2017-03-16T21:18:46.781Z,0
2017-03-16T21:19:48.588Z,0
2017-03-16T21:20:49.998Z,0
2017-03-16T21:21:51.518Z,0
2017-03-16T21:22:52.980Z,0
2017-03-16T21:23:54.539Z,0
2017-03-16T21:24:55.994Z,0
2017-03-16T21:25:57.468Z,0
2017-03-16T21:26:58.924Z,0
2017-03-16T21:28:00.454Z,0
2017-03-16T21:29:01.949Z,0
2017-03-16T21:30:03.507Z,0
2017-03-16T21:31:04.975Z,0
2017-03-16T21:32:06.411Z,0
2017-03-16T21:33:07.875Z,0
2017-03-16T21:34:09.297Z,0
2017-03-16T21:35:10.766Z,0
2017-03-16T21:36:12.208Z,0
2017-03-16T21:37:13.660Z,0
2017-03-16T21:38:15.114Z,0
2017-03-16T21:39:16.571Z,0
2017-03-16T21:40:18.007Z,0
2017-03-16T21:41:19.527Z,0
2017-03-16T21:42:20.987Z,0
2017-03-16T21:43:22.850Z,0
2017-03-16T21:44:24.255Z,0
2017-03-16T21:45:25.675Z,0
2017-03-16T21:46:27.160Z,0
2017-03-16T21:47:28.575Z,0
2017-03-16T21:48:29.976Z,0
2017-03-16T21:49:31.893Z,0
2017-03-16T21:50:33.459Z,0
2017-03-16T21:51:34.890Z,0
2017-03-16T21:52:36.307Z,0
2017-03-16T21:53:37.753Z,0
2017-03-16T21:54:39.393Z,0
2017-03-16T21:55:41.016Z,0
2017-03-16T21:56:42.664Z,0
2017-03-16T21:57:44.179Z,0
2017-03-16T21:58:45.706Z,0
2017-03-16T21:59:47.151Z,0
2017-03-16T22:00:48.661Z,0
2017-03-16T22:01:50.219Z,0
2017-03-16T22:02:51.679Z,0
2017-03-16T22:03:53.117Z,0
2017-03-16T22:04:54.548Z,0
2017-03-16T22:05:56.006Z,0
2017-03-16T22:06:57.579Z,0
2017-03-16T22:07:59.009Z,0
2017-03-16T22:09:00.511Z,0
2017-03-16T22:10:01.934Z,0
2017-03-16T22:11:03.504Z,0
2017-03-16T22:12:04.972Z,0
2017-03-16T22:13:06.550Z,0
2017-03-16T22:14:08.019Z,0
2017-03-16T22:15:09.538Z,0
2017-03-16T22:16:11.071Z,0
2017-03-16T22:17:12.542Z,0
2017-03-16T22:18:13.984Z,0
2017-03-16T22:19:15.518Z,0
2017-03-16T22:20:16.929Z,0
2017-03-16T22:21:18.391Z,0
2017-03-16T22:22:19.839Z,0
2017-03-16T22:23:21.295Z,0
2017-03-16T22:24:22.872Z,0
2017-03-16T22:26:04.253Z,0
2017-03-16T22:27:45.223Z,0
2017-03-16T22:30:05.602Z,0
2017-03-16T22:31:46.674Z,0
2017-03-16T22:32:48.161Z,0
2017-03-16T22:33:49.585Z,0
2017-03-16T22:34:51.129Z,0
2017-03-16T22:35:52.687Z,0
2017-03-16T22:36:54.174Z,0
2017-03-16T22:37:55.581Z,0
2017-03-16T22:38:57.076Z,0
2017-03-16T22:39:58.563Z,0
2017-03-16T22:41:00.034Z,0
2017-03-16T22:42:01.578Z,0
2017-03-16T22:43:03.053Z,0
2017-03-16T22:44:04.512Z,0
2017-03-16T22:45:05.925Z,0
2017-03-16T22:46:07.399Z,0
2017-03-16T22:47:08.807Z,0
2017-03-16T22:48:10.256Z,0
2017-03-16T22:49:11.691Z,0
2017-03-16T22:50:13.126Z,0
2017-03-16T22:51:14.553Z,0
2017-03-16T22:52:16.005Z,0
2017-03-16T22:53:17.476Z,0
2017-03-16T22:54:18.970Z,0
2017-03-16T22:55:20.397Z,0
2017-03-16T22:56:21.845Z,0
2017-03-16T22:57:23.388Z,0
2017-03-16T22:58:24.855Z,0
2017-03-16T22:59:26.390Z,0
2017-03-16T23:00:27.969Z,0
2017-03-16T23:01:29.404Z,0
2017-03-16T23:02:30.881Z,0
2017-03-16T23:03:32.337Z,0
2017-03-16T23:04:33.803Z,0
2017-03-16T23:05:35.254Z,0
2017-03-16T23:06:36.949Z,0
2017-03-16T23:07:38.423Z,0
2017-03-16T23:08:39.913Z,0
2017-03-16T23:09:41.482Z,0
2017-03-16T23:10:43.005Z,0
2017-03-16T23:11:44.460Z,0
2017-03-16T23:12:45.990Z,0
2017-03-16T23:13:47.550Z,0
2017-03-16T23:14:48.997Z,0
2017-03-16T23:15:50.467Z,0
2017-03-16T23:16:52.059Z,0
2017-03-16T23:17:53.525Z,0
2017-03-16T23:18:54.941Z,0
2017-03-16T23:19:56.358Z,0
2017-03-16T23:20:57.866Z,0
2017-03-16T23:21:59.367Z,0
2017-03-16T23:23:00.788Z,0
2017-03-16T23:24:02.275Z,0
2017-03-16T23:25:03.723Z,0
2017-03-16T23:26:05.156Z,0
2017-03-16T23:27:06.621Z,0
2017-03-16T23:28:08.064Z,0
2017-03-16T23:29:09.514Z,0
2017-03-16T23:30:11.055Z,0
2017-03-16T23:31:12.495Z,0
2017-03-16T23:32:13.917Z,0
2017-03-16T23:33:15.371Z,0
2017-03-16T23:34:16.819Z,0
2017-03-16T23:35:18.441Z,0
2017-03-16T23:36:19.907Z,0
2017-03-16T23:37:21.380Z,0
2017-03-16T23:38:22.939Z,0
2017-03-16T23:39:24.511Z,0
2017-03-16T23:40:26.044Z,0
2017-03-16T23:41:27.513Z,0
2017-03-16T23:42:28.948Z,0
2017-03-16T23:43:30.464Z,0
2017-03-16T23:44:32.015Z,0
2017-03-16T23:45:33.596Z,0
2017-03-16T23:46:35.057Z,0
2017-03-16T23:47:36.503Z,0
2017-03-16T23:48:37.983Z,0
2017-03-16T23:49:39.517Z,0
2017-03-16T23:50:40.939Z,0
2017-03-16T23:51:42.385Z,0
2017-03-16T23:52:43.952Z,0
2017-03-16T23:53:46.631Z,0
2017-03-16T23:54:48.216Z,0
2017-03-16T23:55:49.691Z,0
2017-03-16T23:56:51.172Z,0
2017-03-16T23:57:52.650Z,0
2017-03-16T23:58:54.228Z,0
2017-03-16T23:59:55.782Z,0
